Time;durP1;ratioP1;P1;durP2;ratioP2;P2;SDS_P1;SDS_P2;PMS_P1;PMS_P2;Temp;Humidity;BMP_temperature;BMP_pressure;BME280_temperature;BME280_humidity;BME280_pressure;Samples;Min_cycle;Max_cycle;Signal;HPM_P1;HPM_P2
2021/05/20 00:00:09;;;;;;;7.00;2.60;;;;;;;10.41;78.26;101827.03;4983538;28;20061;-76
2021/05/20 00:02:35;;;;;;;8.48;2.65;;;;;;;10.14;77.92;101777.06;4990119;28;20031;-76
2021/05/20 00:05:04;;;;;;;8.25;2.40;;;;;;;10.36;78.50;101814.09;5004107;28;20502;-76
2021/05/20 00:07:29;;;;;;;10.77;2.42;;;;;;;10.31;78.68;101802.81;5012278;28;20038;-78
2021/05/20 00:09:55;;;;;;;9.52;2.90;;;;;;;10.27;78.33;101793.34;5003338;28;20042;-78
2021/05/20 00:12:21;;;;;;;5.00;1.90;;;;;;;10.32;78.66;101806.31;4999595;28;20039;-77
2021/05/20 00:14:46;;;;;;;5.88;2.28;;;;;;;10.23;78.65;101791.69;4990542;28;20035;-77
2021/05/20 00:17:12;;;;;;;5.78;1.98;;;;;;;10.30;78.92;101801.13;4984319;28;20031;-76
2021/05/20 00:19:38;;;;;;;11.27;2.85;;;;;;;10.22;79.24;101797.81;4995611;28;20060;-78
2021/05/20 00:22:04;;;;;;;13.88;3.13;;;;;;;10.16;79.05;101800.53;4995214;28;20374;-78
2021/05/20 00:24:29;;;;;;;11.48;3.10;;;;;;;10.16;79.04;101792.72;4992409;28;20468;-77
2021/05/20 00:26:55;;;;;;;7.78;2.90;;;;;;;10.15;79.31;101798.81;4995213;28;20030;-76
2021/05/20 00:29:20;;;;;;;7.38;3.38;;;;;;;10.00;79.42;101787.75;4994635;28;20499;-77
2021/05/20 00:31:46;;;;;;;8.43;2.67;;;;;;;10.00;79.61;101787.75;4994711;28;20030;-78
2021/05/20 00:34:11;;;;;;;6.88;3.33;;;;;;;10.06;79.24;101795.47;4994208;28;20038;-78
2021/05/20 00:36:37;;;;;;;12.20;2.80;;;;;;;10.05;79.56;101796.34;4995624;28;20092;-77
2021/05/20 00:39:03;;;;;;;7.95;2.72;;;;;;;10.05;79.55;101796.34;4995957;28;20098;-78
2021/05/20 00:41:29;;;;;;;11.68;3.35;;;;;;;10.05;79.33;101795.50;5003648;28;20038;-77
2021/05/20 00:43:54;;;;;;;11.75;3.17;;;;;;;9.88;79.27;101778.41;5017223;28;20052;-76
2021/05/20 00:46:20;;;;;;;6.93;3.00;;;;;;;9.69;79.41;101751.81;5014839;28;20035;-77
2021/05/20 00:48:47;;;;;;;8.23;3.22;;;;;;;9.90;79.51;101794.88;5013926;28;20081;-77
2021/05/20 00:51:13;;;;;;;7.50;3.30;;;;;;;9.89;79.31;101795.78;5001585;28;20499;-77
2021/05/20 00:53:39;;;;;;;5.53;2.25;;;;;;;9.89;79.35;101790.56;5002772;28;20026;-77
2021/05/20 00:56:07;;;;;;;8.73;3.00;;;;;;;9.91;79.26;101800.94;5004318;28;20034;-78
2021/05/20 00:58:32;;;;;;;6.63;2.20;;;;;;;9.93;78.89;101789.59;4982157;28;20042;-77
2021/05/20 01:00:59;;;;;;;8.00;2.40;;;;;;;9.87;78.69;101784.50;4979732;28;20039;-79
2021/05/20 01:03:24;;;;;;;8.65;3.05;;;;;;;9.77;79.37;101788.16;4989082;28;20430;-78
2021/05/20 01:05:53;;;;;;;7.57;2.45;;;;;;;9.69;79.55;101782.22;4995640;28;20034;-76
2021/05/20 01:08:22;;;;;;;4.45;2.35;;;;;;;9.70;79.73;101776.97;4994753;28;20054;-77
2021/05/20 01:10:48;;;;;;;8.00;2.75;;;;;;;9.68;79.37;101775.28;4995016;28;20026;-77
2021/05/20 01:13:15;;;;;;;10.50;3.10;;;;;;;9.69;79.42;101784.81;4993524;28;20054;-78
2021/05/20 01:15:40;;;;;;;10.50;2.75;;;;;;;9.68;79.73;101770.94;4995364;28;20039;-78
2021/05/20 01:18:06;;;;;;;8.13;2.17;;;;;;;9.69;79.40;101772.66;4993750;28;20396;-77
2021/05/20 01:20:39;;;;;;;7.80;3.33;;;;;;;9.67;79.39;101758.78;4994233;28;20545;-78
2021/05/20 01:23:10;;;;;;;4.82;2.10;;;;;;;9.84;78.48;101771.53;4994980;28;20073;-77
2021/05/20 01:25:37;;;;;;;7.15;2.40;;;;;;;9.84;78.55;101768.91;4993720;28;20030;-76
2021/05/20 01:28:07;;;;;;;5.60;2.42;;;;;;;9.81;78.89;101768.97;4982394;28;20031;-77
2021/05/20 01:30:36;;;;;;;4.75;2.08;;;;;;;9.74;78.58;101765.63;5005198;28;20073;-78
2021/05/20 01:33:04;;;;;;;5.88;2.30;;;;;;;9.51;78.80;101724.31;5002266;28;20090;-77
2021/05/20 01:35:30;;;;;;;6.70;2.88;;;;;;;9.71;78.88;101762.19;5006122;28;20046;-77
2021/05/20 01:38:15;;;;;;;6.82;2.40;;;;;;;9.55;79.00;101741.59;5003971;28;20058;-78
2021/05/20 01:40:41;;;;;;;8.18;2.40;;;;;;;9.58;78.98;101741.56;5002827;28;20050;-77
2021/05/20 01:43:06;;;;;;;7.70;2.78;;;;;;;9.55;79.63;101745.97;5003257;28;20046;-77
2021/05/20 01:45:32;;;;;;;8.18;2.40;;;;;;;9.57;79.50;101745.06;4994132;28;20836;-77
2021/05/20 01:47:59;;;;;;;7.75;2.17;;;;;;;9.63;79.20;101749.31;4994009;28;20035;-77
2021/05/20 01:50:25;;;;;;;4.03;1.73;;;;;;;9.60;78.99;101744.97;4994440;28;20041;-77
2021/05/20 01:52:50;;;;;;;7.13;2.10;;;;;;;9.65;78.98;101738.84;4993743;28;20038;-78
2021/05/20 01:55:16;;;;;;;4.60;2.00;;;;;;;9.61;78.81;101733.66;4991497;28;20121;-78
2021/05/20 01:57:41;;;;;;;6.25;1.80;;;;;;;9.70;78.58;101735.25;4994535;28;20038;-77
2021/05/20 02:00:08;;;;;;;6.43;1.90;;;;;;;9.73;77.97;101732.59;4994075;28;20035;-77
2021/05/20 02:02:33;;;;;;;4.40;1.75;;;;;;;9.46;78.21;101671.41;4996285;28;20041;-78
2021/05/20 02:04:59;;;;;;;6.90;2.20;;;;;;;9.74;77.72;101718.69;4993994;28;20038;-77
2021/05/20 02:07:24;;;;;;;8.20;1.90;;;;;;;9.37;77.68;101654.16;4993394;28;20117;-77
2021/05/20 02:09:50;;;;;;;5.55;1.67;;;;;;;9.81;77.08;101708.13;4993307;28;20133;-77
2021/05/20 02:12:15;;;;;;;7.70;2.00;;;;;;;9.78;77.38;101703.84;4993523;28;20513;-77
2021/05/20 02:14:41;;;;;;;8.13;2.20;;;;;;;9.74;77.46;101696.94;4993359;28;20479;-77
2021/05/20 02:17:06;;;;;;;8.32;1.90;;;;;;;9.75;77.59;101702.16;4993496;28;20582;-78
2021/05/20 02:19:32;;;;;;;10.13;2.33;;;;;;;9.68;77.58;101692.72;4993865;28;20057;-77
2021/05/20 02:21:57;;;;;;;5.65;1.98;;;;;;;9.69;77.62;101694.44;4994610;28;20031;-77
2021/05/20 02:24:23;;;;;;;5.28;1.95;;;;;;;9.69;77.49;101683.16;4992186;28;20435;-78
2021/05/20 02:26:48;;;;;;;9.55;2.60;;;;;;;9.64;77.01;101670.19;4993601;28;20119;-77
2021/05/20 02:29:13;;;;;;;6.05;2.10;;;;;;;9.67;77.08;101684.94;4993530;28;20038;-79
2021/05/20 02:31:39;;;;;;;5.55;1.85;;;;;;;9.58;77.18;101676.41;4991864;28;20030;-78
2021/05/20 02:34:04;;;;;;;3.90;1.77;;;;;;;9.51;77.38;101663.47;4993765;28;20034;-77
2021/05/20 02:36:30;;;;;;;6.22;1.90;;;;;;;9.64;76.87;101670.19;4993220;28;20030;-78
2021/05/20 02:38:55;;;;;;;6.28;2.15;;;;;;;9.53;77.32;101656.50;4992875;28;20041;-78
2021/05/20 02:41:21;;;;;;;4.70;2.20;;;;;;;9.56;77.01;101670.34;4991916;28;20042;-77
2021/05/20 02:43:46;;;;;;;5.32;2.20;;;;;;;9.50;77.43;101675.66;4993121;28;20042;-78
2021/05/20 02:46:12;;;;;;;7.53;2.20;;;;;;;9.49;77.17;101663.53;4993782;28;20038;-77
2021/05/20 02:48:37;;;;;;;2.78;1.70;;;;;;;9.48;76.90;101645.31;4992577;28;20042;-78
2021/05/20 02:51:03;;;;;;;5.88;2.20;;;;;;;9.51;76.85;101658.28;4993258;28;20089;-77
2021/05/20 02:53:29;;;;;;;4.90;1.90;;;;;;;9.60;76.72;101668.53;4993997;28;20442;-77
2021/05/20 02:55:54;;;;;;;7.68;2.30;;;;;;;9.55;76.83;101658.19;4990080;28;20034;-77
2021/05/20 02:58:21;;;;;;;4.70;2.20;;;;;;;9.55;76.95;101660.81;4995998;28;20046;-78
2021/05/20 03:00:47;;;;;;;6.72;1.92;;;;;;;9.52;76.95;101644.34;4997747;28;20072;-78
2021/05/20 03:03:15;;;;;;;6.40;1.90;;;;;;;9.46;76.78;101621.88;4997415;28;20034;-78
2021/05/20 03:05:40;;;;;;;3.70;1.95;;;;;;;9.51;77.31;101640.91;4997521;28;20046;-78
2021/05/20 03:08:08;;;;;;;6.35;2.00;;;;;;;9.33;77.28;101615.19;4997286;28;20444;-77
2021/05/20 03:10:33;;;;;;;7.00;2.33;;;;;;;9.48;77.68;101640.09;4998955;28;20035;-78
2021/05/20 03:12:59;;;;;;;4.30;2.05;;;;;;;9.52;77.10;101620.91;4998196;28;20098;-78
2021/05/20 03:15:24;;;;;;;5.47;2.17;;;;;;;9.56;77.07;101620.81;5009948;28;20069;-78
2021/05/20 03:17:50;;;;;;;6.97;2.35;;;;;;;9.56;77.02;101620.81;5008287;28;20054;-78
2021/05/20 03:20:17;;;;;;;8.27;2.22;;;;;;;9.57;76.68;101612.13;4996807;28;20049;-77
2021/05/20 03:22:42;;;;;;;5.70;2.45;;;;;;;9.53;76.62;101609.59;4999619;28;20053;-77
2021/05/20 03:25:08;;;;;;;5.22;2.15;;;;;;;9.54;76.79;101611.31;5005902;28;20482;-78
2021/05/20 03:27:34;;;;;;;5.88;2.10;;;;;;;9.53;76.88;101594.81;4988385;28;20031;-77
2021/05/20 03:30:01;;;;;;;6.30;2.10;;;;;;;9.40;77.27;101583.75;4997030;28;20585;-77
2021/05/20 03:32:26;;;;;;;7.18;2.70;;;;;;;9.48;76.90;101594.03;4996761;28;20475;-77
2021/05/20 03:34:52;;;;;;;6.38;2.22;;;;;;;9.48;77.13;101590.56;4996798;28;20121;-76
2021/05/20 03:37:17;;;;;;;8.40;2.33;;;;;;;9.52;76.81;101595.72;4997372;28;20038;-79
2021/05/20 03:39:43;;;;;;;5.15;2.08;;;;;;;9.41;77.04;101582.00;4996705;28;20034;-77
2021/05/20 03:42:08;;;;;;;5.43;2.28;;;;;;;9.47;77.11;101586.25;4991912;28;20109;-77
2021/05/20 03:44:34;;;;;;;7.65;2.03;;;;;;;9.51;77.46;101585.28;4978169;28;20493;-78
2021/05/20 03:47:00;;;;;;;5.75;2.42;;;;;;;9.43;77.14;101581.09;4996238;28;20022;-78
2021/05/20 03:49:25;;;;;;;5.15;2.15;;;;;;;9.39;77.63;101565.56;4996793;28;20038;-77
2021/05/20 03:51:51;;;;;;;7.22;2.40;;;;;;;9.48;77.16;101564.53;4993788;28;20039;-77
2021/05/20 03:54:16;;;;;;;7.65;2.55;;;;;;;9.51;76.72;101551.41;4996321;28;20137;-77
2021/05/20 03:56:42;;;;;;;4.82;1.90;;;;;;;9.55;76.50;101553.94;4989945;28;20031;-78
2021/05/20 03:59:07;;;;;;;7.05;2.10;;;;;;;9.53;76.37;101544.44;4996279;28;20092;-78
2021/05/20 04:01:33;;;;;;;7.55;2.28;;;;;;;9.60;76.31;101554.69;4994551;28;20036;-77
2021/05/20 04:03:58;;;;;;;8.82;2.38;;;;;;;9.64;76.13;101546.81;4995263;28;20041;-77
2021/05/20 04:06:24;;;;;;;4.82;2.05;;;;;;;9.55;76.18;101534.84;4995763;28;20057;-77
2021/05/20 04:08:49;;;;;;;5.30;2.05;;;;;;;9.58;76.43;101542.56;4996213;28;20046;-75
2021/05/20 04:11:15;;;;;;;5.18;1.70;;;;;;;9.46;76.55;101520.25;4996324;28;20042;-77
2021/05/20 04:13:44;;;;;;;9.82;2.47;;;;;;;9.54;76.89;101531.34;4996204;28;20434;-78
2021/05/20 04:16:14;;;;;;;6.10;1.90;;;;;;;9.52;76.57;101529.69;4995782;28;20117;-78
2021/05/20 04:18:41;;;;;;;5.93;1.98;;;;;;;9.50;76.43;101511.47;4996002;28;20121;-78
2021/05/20 04:21:07;;;;;;;5.82;2.08;;;;;;;9.57;76.02;101514.78;4995718;28;20053;-78
2021/05/20 04:23:33;;;;;;;6.63;2.08;;;;;;;9.60;75.84;101518.19;4995953;28;20395;-76
2021/05/20 04:25:59;;;;;;;5.85;2.15;;;;;;;9.57;76.03;101512.19;4995946;28;20049;-78
2021/05/20 04:28:24;;;;;;;5.32;2.20;;;;;;;9.61;76.07;101519.06;4996276;28;20038;-77
2021/05/20 04:30:50;;;;;;;6.50;2.20;;;;;;;9.66;75.98;101508.56;4995922;28;20034;-78
2021/05/20 04:33:15;;;;;;;5.18;2.10;;;;;;;9.67;75.77;101500.69;4995212;28;20031;-78
2021/05/20 04:35:42;;;;;;;7.32;2.42;;;;;;;9.68;76.07;101499.81;4996103;28;20456;-78
2021/05/20 04:38:08;;;;;;;5.90;2.50;;;;;;;9.71;75.92;101499.72;4995825;28;20097;-78
2021/05/20 04:40:38;;;;;;;7.07;2.20;;;;;;;9.72;75.83;101496.22;4994301;28;20038;-77
2021/05/20 04:43:04;;;;;;;7.53;2.88;;;;;;;9.67;75.98;101485.06;4995242;28;20360;-77
2021/05/20 04:45:29;;;;;;;6.22;2.42;;;;;;;9.71;76.08;101497.13;4995780;28;20030;-77
2021/05/20 04:47:55;;;;;;;5.07;2.38;;;;;;;9.77;75.58;101493.53;4990308;28;20034;-78
2021/05/20 04:50:21;;;;;;;7.03;2.70;;;;;;;9.75;75.94;101488.34;4992361;28;20105;-78
2021/05/20 04:52:48;;;;;;;4.28;2.15;;;;;;;9.81;75.97;101486.50;4995572;28;20048;-78
2021/05/20 04:55:16;;;;;;;5.15;2.30;;;;;;;9.79;76.24;101478.72;4997434;28;20034;-80
2021/05/20 04:57:42;;;;;;;7.53;2.65;;;;;;;9.73;75.77;101458.84;4997935;28;20112;-78
2021/05/20 05:00:10;;;;;;;5.80;2.22;;;;;;;9.86;75.75;101469.88;5001362;28;20545;-76
2021/05/20 05:02:37;;;;;;;8.93;2.42;;;;;;;9.87;75.93;101471.56;5000607;28;20363;-76
2021/05/20 05:05:04;;;;;;;8.80;2.40;;;;;;;9.90;76.08;101465.44;4996307;28;20113;-76
2021/05/20 05:07:30;;;;;;;4.82;2.20;;;;;;;9.92;75.87;101461.03;4986433;28;20037;-76
2021/05/20 05:09:56;;;;;;;7.03;2.30;;;;;;;9.91;75.82;101454.97;4987766;28;20050;-75
2021/05/20 05:12:21;;;;;;;6.13;2.78;;;;;;;9.81;75.65;101424.75;4995500;28;20058;-78
2021/05/20 05:14:47;;;;;;;6.22;2.30;;;;;;;9.77;76.29;101423.13;4983374;28;20069;-75
2021/05/20 05:17:13;;;;;;;6.55;2.65;;;;;;;9.93;76.13;101436.66;4988477;28;20129;-78
2021/05/20 05:19:39;;;;;;;4.60;2.20;;;;;;;9.98;76.13;101432.19;4985033;28;20039;-76
2021/05/20 05:22:04;;;;;;;7.07;2.65;;;;;;;9.94;76.27;101425.34;4986773;28;20051;-77
2021/05/20 05:24:30;;;;;;;7.32;2.60;;;;;;;9.99;76.39;101423.47;4996460;28;20030;-77
2021/05/20 05:26:56;;;;;;;8.85;2.97;;;;;;;10.02;76.67;101417.31;4998263;28;20034;-77
2021/05/20 05:29:22;;;;;;;5.90;2.60;;;;;;;10.09;76.33;101408.44;5016688;28;20022;-75
2021/05/20 05:31:48;;;;;;;6.18;2.80;;;;;;;10.02;77.21;101414.72;5017804;28;20098;-75
2021/05/20 05:34:14;;;;;;;6.50;2.78;;;;;;;10.01;77.12;101398.22;5010637;28;20089;-77
2021/05/20 05:36:40;;;;;;;7.03;2.72;;;;;;;10.09;77.09;101404.13;4996366;28;20023;-78
2021/05/20 05:39:06;;;;;;;6.80;2.72;;;;;;;10.21;76.99;101405.53;5010639;28;20132;-78
2021/05/20 05:41:31;;;;;;;8.38;3.58;;;;;;;10.21;76.72;101376.00;4995604;28;20035;-77
2021/05/20 05:43:57;;;;;;;8.27;3.50;;;;;;;10.23;76.93;101387.25;4995062;28;20057;-78
2021/05/20 05:46:22;;;;;;;7.15;3.25;;;;;;;10.29;76.83;101370.56;4993768;28;20097;-77
2021/05/20 05:48:49;;;;;;;7.35;3.17;;;;;;;10.41;76.86;101378.09;4993974;28;20070;-78
2021/05/20 05:51:16;;;;;;;9.38;3.63;;;;;;;10.41;77.23;101380.72;4995748;28;20041;-79
2021/05/20 05:53:42;;;;;;;9.88;3.45;;;;;;;10.40;77.06;101358.13;5002371;28;20053;-78
2021/05/20 05:56:08;;;;;;;10.80;3.25;;;;;;;10.53;77.16;101362.13;5001829;28;20116;-80
2021/05/20 05:58:33;;;;;;;11.23;3.83;;;;;;;10.45;76.95;101330.16;4998428;28;20454;-78
2021/05/20 06:01:00;;;;;;;11.98;3.03;;;;;;;10.65;76.87;101349.63;4985185;28;20046;-78
2021/05/20 06:03:27;;;;;;;11.00;3.70;;;;;;;10.65;76.96;101353.09;4997193;28;20085;-79
2021/05/20 06:05:52;;;;;;;9.35;3.10;;;;;;;10.71;76.37;101323.34;4995727;28;20034;-79
2021/05/20 06:08:18;;;;;;;10.45;3.80;;;;;;;10.83;76.24;101333.44;4995272;28;20438;-76
2021/05/20 06:10:44;;;;;;;6.50;3.55;;;;;;;11.02;75.96;101325.03;4995434;28;20077;-78
2021/05/20 06:13:10;;;;;;;10.00;4.25;;;;;;;11.13;75.47;101312.53;4994956;28;20030;-78
2021/05/20 06:15:36;;;;;;;14.20;4.43;;;;;;;11.03;75.13;101296.28;4993891;28;20106;-78
2021/05/20 06:18:02;;;;;;;11.68;3.92;;;;;;;11.28;74.84;101302.47;4994688;28;20046;-78
2021/05/20 06:20:29;;;;;;;10.18;3.55;;;;;;;11.42;74.19;101309.91;4995077;28;20510;-77
2021/05/20 06:22:54;;;;;;;12.43;3.15;;;;;;;11.47;74.36;101306.22;4993144;28;20041;-78
2021/05/20 06:25:21;;;;;;;12.15;3.88;;;;;;;11.41;73.92;101308.19;4995044;28;20042;-78
2021/05/20 06:27:46;;;;;;;9.20;3.58;;;;;;;11.14;75.39;101289.84;4997319;28;20098;-77
2021/05/20 06:30:12;;;;;;;9.88;3.67;;;;;;;11.21;76.37;101294.00;4999344;28;20065;-78
2021/05/20 06:32:38;;;;;;;11.32;3.58;;;;;;;11.25;76.19;101294.75;5000188;28;20089;-79
2021/05/20 06:35:08;;;;;;;13.65;4.63;;;;;;;11.14;75.94;101292.47;5000635;28;20026;-77
2021/05/20 06:37:34;;;;;;;14.63;4.13;;;;;;;11.05;76.19;101272.72;4985882;28;20023;-78
2021/05/20 06:40:00;;;;;;;12.50;4.03;;;;;;;11.24;75.48;101266.91;4998822;28;20042;-78
2021/05/20 06:42:25;;;;;;;10.00;3.80;;;;;;;11.10;74.97;101254.28;4998073;28;20038;-78
2021/05/20 06:44:51;;;;;;;13.95;3.50;;;;;;;11.24;74.57;101261.69;4997229;28;20160;-78
2021/05/20 06:47:18;;;;;;;12.57;3.55;;;;;;;11.24;74.64;101261.69;4990176;28;20581;-79
2021/05/20 06:49:43;;;;;;;8.95;3.05;;;;;;;11.11;74.57;101243.78;4979148;28;20046;-78
2021/05/20 06:52:09;;;;;;;14.77;4.03;;;;;;;11.16;74.83;101259.31;4993080;28;20034;-78
2021/05/20 06:54:35;;;;;;;9.75;3.05;;;;;;;11.01;74.96;101247.56;4996537;28;20398;-79
2021/05/20 06:57:06;;;;;;;8.82;3.25;;;;;;;11.10;75.53;101256.91;5000055;28;20038;-78
2021/05/20 07:00:14;;;;;;;8.38;3.22;;;;;;;11.13;75.89;101247.22;4999212;28;20043;-78
2021/05/20 07:02:20;;;;;;;11.82;3.40;;;;;;;11.13;75.80;101244.59;4997167;28;20053;-77
2021/05/20 07:04:46;;;;;;;12.23;3.83;;;;;;;11.32;75.38;101236.16;5004838;28;20039;-77
2021/05/20 07:07:16;;;;;;;9.68;3.28;;;;;;;11.41;74.86;101243.69;5005277;28;20034;-78
2021/05/20 07:09:42;;;;;;;14.10;3.42;;;;;;;11.29;74.81;101239.72;5009762;28;20513;-79
2021/05/20 07:12:10;;;;;;;12.02;3.90;;;;;;;11.43;74.74;101227.97;5005398;28;20038;-80
2021/05/20 07:14:36;;;;;;;10.68;3.00;;;;;;;11.29;73.63;101223.19;5004572;28;20089;-78
2021/05/20 07:17:01;;;;;;;10.07;3.28;;;;;;;11.43;73.44;101212.28;4978698;28;20035;-79
2021/05/20 07:19:28;;;;;;;14.68;3.60;;;;;;;11.51;73.59;101192.81;4987481;28;20036;-79
2021/05/20 07:21:53;;;;;;;11.32;3.60;;;;;;;11.41;73.06;101188.78;4978359;28;20070;-79
2021/05/20 07:24:19;;;;;;;7.90;3.50;;;;;;;11.57;72.74;101175.19;4978273;28;20109;-79
2021/05/20 07:26:45;;;;;;;12.95;3.00;;;;;;;11.64;72.41;101166.22;4978205;28;20031;-79
2021/05/20 07:29:11;;;;;;;15.10;3.42;;;;;;;11.64;71.76;101167.06;4987145;28;20418;-80
2021/05/20 07:31:38;;;;;;;12.38;2.78;;;;;;;11.52;71.92;101141.38;4997581;28;20038;-79
2021/05/20 07:34:04;;;;;;;8.77;2.47;;;;;;;11.70;71.41;101145.09;4997611;28;20034;-80
2021/05/20 07:36:30;;;;;;;9.48;2.45;;;;;;;11.76;72.40;101144.88;4997963;28;20083;-81
2021/05/20 07:38:56;;;;;;;14.35;3.67;;;;;;;11.85;72.17;101146.28;4997748;28;20034;-81
2021/05/20 07:41:22;;;;;;;10.90;3.65;;;;;;;11.69;72.90;101143.38;5012697;28;20059;-81
2021/05/20 07:43:48;;;;;;;11.57;3.30;;;;;;;11.00;73.47;101063.88;4997011;28;20146;-81
2021/05/20 07:46:14;;;;;;;8.48;3.60;;;;;;;11.23;74.42;101129.31;4996800;28;20036;-81
2021/05/20 07:48:40;;;;;;;33.13;29.65;;;;;;;11.47;74.18;101127.59;5008197;28;20094;-79
2021/05/20 07:51:07;;;;;;;15.00;3.22;;;;;;;11.39;74.34;101114.81;5008140;28;20399;-79
2021/05/20 07:53:33;;;;;;;11.40;3.20;;;;;;;11.48;74.10;101111.03;4999905;28;20487;-79
2021/05/20 07:55:59;;;;;;;10.13;2.80;;;;;;;11.70;73.36;101108.47;4994674;28;20030;-78
2021/05/20 07:58:25;;;;;;;12.98;3.05;;;;;;;11.74;72.61;101089.16;4996007;28;20030;-79
2021/05/20 08:00:54;;;;;;;15.60;3.20;;;;;;;11.73;73.50;101073.50;4995965;28;20403;-78
2021/05/20 08:08:35;;;;;;;9.70;2.47;;;;;;;11.41;72.72;101018.88;4996384;28;20451;-79
2021/05/20 08:11:05;;;;;;;8.70;2.83;;;;;;;11.60;73.17;101053.06;4996648;28;20041;-80
2021/05/20 08:13:31;;;;;;;8.73;2.85;;;;;;;11.73;72.44;101053.47;4994797;28;20030;-82
2021/05/20 08:15:58;;;;;;;14.55;3.92;;;;;;;11.66;72.26;101016.22;4997325;28;20038;-82
2021/05/20 08:18:23;;;;;;;10.65;3.20;;;;;;;11.79;71.71;101018.38;4997336;28;20051;-82
2021/05/20 08:20:49;;;;;;;8.80;2.97;;;;;;;11.94;71.12;101036.09;4988143;28;20090;-84
2021/05/20 08:23:14;;;;;;;9.55;2.90;;;;;;;12.00;70.92;101004.50;4992167;28;20030;-82
2021/05/20 08:25:41;;;;;;;7.70;2.50;;;;;;;12.02;70.57;101012.28;4995391;28;20034;-82
2021/05/20 08:28:07;;;;;;;13.45;3.55;;;;;;;12.07;70.88;100999.88;4996622;28;20099;-79
2021/05/20 08:30:32;;;;;;;9.77;2.25;;;;;;;12.06;70.49;100992.06;4992919;28;20062;-78
2021/05/20 08:32:58;;;;;;;7.88;2.60;;;;;;;11.84;70.01;100972.81;4993872;28;20040;-79
2021/05/20 08:35:24;;;;;;;9.82;2.28;;;;;;;12.04;69.10;100925.91;4989763;28;20090;-78
2021/05/20 08:37:50;;;;;;;6.47;2.15;;;;;;;12.28;67.91;100918.78;4997594;28;20430;-79
2021/05/20 08:40:15;;;;;;;14.85;2.53;;;;;;;12.58;67.46;100931.50;4996177;28;20070;-79
2021/05/20 08:42:41;;;;;;;9.63;2.42;;;;;;;12.94;66.50;100926.41;4994914;28;20439;-79
2021/05/20 08:45:11;;;;;;;11.95;2.88;;;;;;;12.87;66.53;100921.53;4995087;28;20034;-79
2021/05/20 08:47:38;;;;;;;9.20;2.40;;;;;;;12.84;66.24;100901.56;4994179;28;20046;-78
2021/05/20 08:50:04;;;;;;;7.75;2.28;;;;;;;12.75;65.96;100886.25;4997702;28;20042;-77
2021/05/20 08:52:31;;;;;;;10.63;2.08;;;;;;;12.59;65.44;100876.44;5009719;28;20030;-78
2021/05/20 08:54:57;;;;;;;8.73;2.10;;;;;;;12.31;65.48;100822.66;5013046;28;20038;-76
2021/05/20 08:57:23;;;;;;;6.32;1.95;;;;;;;12.38;65.50;100840.69;4995013;28;20419;-77
2021/05/20 08:59:49;;;;;;;10.90;2.10;;;;;;;12.34;65.87;100845.25;4995315;28;20057;-78
2021/05/20 09:02:29;;;;;;;9.38;1.60;;;;;;;12.26;65.47;100834.25;4994146;28;20541;-77
2021/05/20 09:05:00;;;;;;;8.23;1.83;;;;;;;12.03;64.81;100783.75;4994225;28;20160;-77
2021/05/20 09:07:31;;;;;;;8.05;1.90;;;;;;;12.06;65.20;100770.53;4993482;28;20041;-77
2021/05/20 09:10:19;;;;;;;10.38;2.10;;;;;;;12.42;65.05;100801.22;4994337;28;20176;-77
2021/05/20 09:12:46;;;;;;;8.32;1.63;;;;;;;12.32;64.06;100772.00;4993752;28;20399;-77
2021/05/20 09:15:15;;;;;;;8.68;1.77;;;;;;;12.73;63.83;100792.03;4994040;28;20035;-77
2021/05/20 09:17:41;;;;;;;7.97;1.80;;;;;;;13.08;62.67;100778.19;4994495;28;20399;-77
2021/05/20 09:20:08;;;;;;;9.68;2.05;;;;;;;13.00;61.68;100767.22;4992814;28;20046;-77
2021/05/20 09:22:35;;;;;;;8.13;1.90;;;;;;;12.90;62.02;100801.72;4992599;28;20057;-77
2021/05/20 09:25:01;;;;;;;5.57;1.77;;;;;;;12.67;61.72;100760.88;4994605;28;20030;-77
2021/05/20 09:27:41;;;;;;;8.52;1.83;;;;;;;12.79;61.72;100798.72;4993940;28;20037;-76
2021/05/20 09:30:13;;;;;;;6.80;1.85;;;;;;;12.90;61.64;100812.22;4993991;28;20057;-76
2021/05/20 09:32:52;;;;;;;8.35;2.03;;;;;;;13.02;61.34;100796.81;4994184;28;20129;-76
2021/05/20 09:35:21;;;;;;;8.82;2.28;;;;;;;13.39;59.75;100793.34;4993761;28;20034;-76
2021/05/20 09:37:50;;;;;;;8.27;1.65;;;;;;;13.51;59.19;100791.03;4994255;28;20438;-77
2021/05/20 09:40:19;;;;;;;8.32;1.88;;;;;;;13.65;57.83;100801.69;4994549;28;20038;-77
2021/05/20 09:42:47;;;;;;;8.73;1.55;;;;;;;13.38;57.63;100775.91;4988608;28;20034;-77
2021/05/20 09:45:15;;;;;;;7.38;1.77;;;;;;;13.22;55.54;100767.91;4973483;28;20039;-77
2021/05/20 09:47:42;;;;;;;6.95;2.00;;;;;;;13.37;55.71;100789.06;4974617;28;20034;-76
2021/05/20 09:50:11;;;;;;;6.85;1.73;;;;;;;13.30;55.61;100780.63;4986003;28;20038;-76
2021/05/20 09:52:37;;;;;;;7.07;1.83;;;;;;;13.39;55.13;100753.13;4993338;28;20531;-76
2021/05/20 09:55:16;;;;;;;5.20;1.73;;;;;;;13.43;54.28;100731.94;4993879;28;20034;-78
2021/05/20 09:57:42;;;;;;;7.00;1.50;;;;;;;13.19;54.40;100746.22;4994373;28;20034;-77
2021/05/20 10:00:13;;;;;;;5.78;1.20;;;;;;;13.19;54.66;100759.34;4995659;28;20034;-78
2021/05/20 10:02:40;;;;;;;5.78;1.35;;;;;;;12.95;55.76;100720.25;4995268;28;20391;-78
2021/05/20 10:05:32;;;;;;;7.13;1.70;;;;;;;13.13;57.50;100744.75;4994075;28;20141;-77
2021/05/20 10:08:01;;;;;;;8.30;1.65;;;;;;;13.08;55.94;100755.44;5005557;28;20046;-76
2021/05/20 10:10:27;;;;;;;6.63;1.20;;;;;;;12.60;57.82;100741.97;5006406;28;20073;-77
2021/05/20 10:12:53;;;;;;;7.65;1.55;;;;;;;12.78;58.75;100724.53;5000181;28;20423;-79
2021/05/20 10:15:23;;;;;;;9.10;1.58;;;;;;;12.70;58.96;100717.97;4975437;28;20034;-79
2021/05/20 10:17:50;;;;;;;5.68;2.00;;;;;;;12.71;59.14;100746.72;4974782;28;20194;-78
2021/05/20 10:20:22;;;;;;;6.30;1.40;;;;;;;12.87;58.82;100730.28;4973063;28;20082;-79
2021/05/20 10:22:51;;;;;;;6.80;1.52;;;;;;;12.69;60.28;100743.28;4976485;28;20043;-78
2021/05/20 10:25:18;;;;;;;5.65;1.65;;;;;;;12.73;61.06;100749.25;4993222;28;20497;-78
2021/05/20 10:27:45;;;;;;;5.03;1.27;;;;;;;12.64;61.44;100747.91;4993414;28;20435;-79
2021/05/20 10:30:14;;;;;;;6.72;1.60;;;;;;;12.71;61.40;100746.72;4993815;28;20394;-79
2021/05/20 10:32:41;;;;;;;6.03;1.70;;;;;;;12.85;60.84;100750.44;4992690;28;20482;-75
2021/05/20 10:35:12;;;;;;;7.07;1.52;;;;;;;12.78;61.27;100742.00;4989745;28;20122;-77
2021/05/20 10:37:42;;;;;;;5.53;1.33;;;;;;;12.85;60.38;100732.13;4992639;28;20037;-77
2021/05/20 10:40:08;;;;;;;7.72;1.70;;;;;;;13.11;60.25;100729.09;4992145;28;20043;-77
2021/05/20 10:42:37;;;;;;;6.43;1.80;;;;;;;13.09;59.49;100724.84;4984741;28;20542;-76
2021/05/20 10:45:28;;;;;;;5.50;1.65;;;;;;;12.89;60.23;100718.81;4977297;28;20049;-76
2021/05/20 10:48:03;;;;;;;7.70;1.88;;;;;;;12.77;60.68;100712.38;4983391;28;20042;-77
2021/05/20 10:51:03;;;;;;;6.43;1.30;;;;;;;12.38;61.89;100662.69;4999873;28;20027;-76
2021/05/20 10:53:37;;;;;;;5.70;1.60;;;;;;;12.44;62.50;100686.84;4981459;28;20046;-76
2021/05/20 10:56:03;;;;;;;;;;;;;;;12.31;63.15;100683.91;5016309;28;20041;-76
2021/05/20 10:58:35;;;;;;;6.20;1.70;;;;;;;12.26;63.83;100672.81;5012557;28;19924;-76
2021/05/20 11:01:04;;;;;;;8.40;1.58;;;;;;;12.30;64.04;100666.53;4986840;28;20092;-76
2021/05/20 11:03:49;;;;;;;3.88;1.05;;;;;;;12.33;64.70;100660.31;4991680;28;20069;-76
2021/05/20 11:06:19;;;;;;;6.50;1.33;;;;;;;12.20;64.71;100612.06;4993537;28;20038;-77
2021/05/20 11:08:44;;;;;;;3.53;0.95;;;;;;;12.52;64.07;100618.41;4993323;28;20434;-77
2021/05/20 11:11:35;;;;;;;8.38;1.50;;;;;;;12.66;62.75;100607.28;4993482;28;20121;-77
2021/05/20 11:14:03;;;;;;;6.38;1.13;;;;;;;12.52;63.58;100610.53;4993786;28;20490;-76
2021/05/20 11:16:32;;;;;;;6.05;1.50;;;;;;;12.49;64.07;100561.78;4997096;28;20046;-77
2021/05/20 11:19:23;;;;;;;6.90;1.10;;;;;;;12.62;64.64;100585.63;5003195;28;20510;-76
2021/05/20 11:22:02;;;;;;;5.28;1.20;;;;;;;12.32;66.37;100570.44;5002640;28;20049;-76
2021/05/20 11:24:32;;;;;;;6.10;1.65;;;;;;;12.45;66.48;100554.16;4996813;28;20066;-77
2021/05/20 11:27:00;;;;;;;3.67;1.10;;;;;;;12.47;67.72;100544.47;4995400;28;20064;-78
2021/05/20 11:29:27;;;;;;;4.22;1.35;;;;;;;12.45;70.48;100535.81;4996632;28;20026;-78
2021/05/20 11:31:58;;;;;;;6.70;3.20;;;;;;;12.23;71.66;100502.00;4995122;28;20030;-78